Time;durP1;ratioP1;P1;durP2;ratioP2;P2;SDS_P1;SDS_P2;PMS_P1;PMS_P2;Temp;Humidity;BMP_temperature;BMP_pressure;BME280_temperature;BME280_humidity;BME280_pressure;Samples;Min_cycle;Max_cycle;Signal;HPM_P1;HPM_P2
2023/07/31 00:00:23;;;;;;;;;;;;;;;22.16;27.53;97333.38;4922189;29;911;-77
2023/07/31 00:02:49;;;;;;;;;;;;;;;22.07;27.59;97331.28;4937953;29;1902;-77
2023/07/31 00:05:15;;;;;;;;;;;;;;;22.33;27.07;97331.91;4938240;29;1108;-77
2023/07/31 00:07:41;;;;;;;;;;;;;;;22.13;27.64;97337.16;4922312;29;955;-77
2023/07/31 00:10:06;;;;;;;;;;;;;;;22.22;27.29;97334.34;4937805;29;908;-78
2023/07/31 00:12:32;;;;;;;;;;;;;;;22.10;27.32;97332.38;4922449;29;1169;-77
2023/07/31 00:14:58;;;;;;;;;;;;;;;22.02;27.61;97342.41;4921818;29;946;-77
2023/07/31 00:17:23;;;;;;;;;;;;;;;22.00;27.41;97336.41;4937909;29;907;-77
2023/07/31 00:19:50;;;;;;;;;;;;;;;22.48;26.96;97340.59;4921919;29;1150;-77
2023/07/31 00:22:16;;;;;;;;;;;;;;;21.85;27.73;97339.78;4937614;29;1922;-76
2023/07/31 00:24:41;;;;;;;;;;;;;;;21.82;27.86;97340.72;4921769;29;1245;-76
2023/07/31 00:27:07;;;;;;;;;;;;;;;21.99;27.79;97337.69;4937879;29;1195;-77
2023/07/31 00:29:32;;;;;;;;;;;;;;;22.02;27.52;97336.72;4937898;29;928;-77
2023/07/31 00:31:58;;;;;;;;;;;;;;;22.19;27.38;97338.13;4922127;29;1376;-77
2023/07/31 00:34:24;;;;;;;;;;;;;;;22.27;27.27;97335.78;4937984;29;852;-77
2023/07/31 00:36:49;;;;;;;;;;;;;;;22.39;26.97;97342.63;4922249;29;992;-77
2023/07/31 00:39:16;;;;;;;;;;;;;;;22.46;26.99;97337.44;4921652;29;1262;-78
2023/07/31 00:41:41;;;;;;;;;;;;;;;21.95;27.50;97334.19;4937717;29;1069;-77
2023/07/31 00:44:07;;;;;;;;;;;;;;;22.03;27.37;97332.66;4899970;29;1907;-77
2023/07/31 00:46:33;;;;;;;;;;;;;;;21.92;27.51;97337.97;4884504;29;1196;-76
2023/07/31 00:48:58;;;;;;;;;;;;;;;21.77;27.65;97343.38;4884084;29;1677;-77
2023/07/31 00:51:24;;;;;;;;;;;;;;;21.93;27.57;97336.69;4928318;29;1159;-76
2023/07/31 00:53:50;;;;;;;;;;;;;;;22.17;27.24;97337.78;4921641;29;1222;-77
2023/07/31 00:56:16;;;;;;;;;;;;;;;22.24;27.21;97343.19;4921605;29;1263;-77
2023/07/31 00:58:42;;;;;;;;;;;;;;;22.09;27.47;97336.47;4921776;29;983;-77
2023/07/31 01:01:07;;;;;;;;;;;;;;;22.42;27.01;97330.34;4921920;29;912;-77
2023/07/31 01:03:33;;;;;;;;;;;;;;;22.19;27.36;97335.28;4921577;29;1907;-78
2023/07/31 01:06:11;;;;;;;;;;;;;;;22.32;27.13;97340.84;4924533;29;1126;-76
2023/07/31 01:08:52;;;;;;;;;;;;;;;22.40;26.70;97338.53;4941293;29;851;-76
2023/07/31 01:11:19;;;;;;;;;;;;;;;22.26;27.27;97346.34;4941115;29;1018;-76
2023/07/31 01:13:45;;;;;;;;;;;;;;;22.15;27.39;97343.13;4940808;29;1014;-76
2023/07/31 01:16:10;;;;;;;;;;;;;;;22.11;27.28;97328.31;4941175;29;982;-78
2023/07/31 01:18:36;;;;;;;;;;;;;;;22.31;27.12;97337.22;4925136;29;1254;-76
2023/07/31 01:21:22;;;;;;;;;;;;;;;22.16;27.39;97333.38;4936785;28;1128;-77
2023/07/31 01:23:53;;;;;;;;;;;;;;;22.01;27.62;97341.59;4921633;29;1891;-77
2023/07/31 01:26:20;;;;;;;;;;;;;;;22.44;26.99;97347.69;4902747;29;918;-77
2023/07/31 01:28:51;;;;;;;;;;;;;;;22.08;27.34;97351.91;4887364;29;888;-76
2023/07/31 01:31:19;;;;;;;;;;;;;;;22.42;26.83;97367.19;4903276;29;1189;-77
2023/07/31 01:33:45;;;;;;;;;;;;;;;22.43;27.04;97365.94;4887262;29;812;-77
2023/07/31 01:36:10;;;;;;;;;;;;;;;22.38;26.82;97369.38;4902760;29;1265;-76
2023/07/31 01:38:36;;;;;;;;;;;;;;;21.91;27.49;97359.03;4886849;29;1097;-77
2023/07/31 01:41:01;;;;;;;;;;;;;;;22.20;27.42;97367.25;4887276;29;1252;-77
2023/07/31 01:43:27;;;;;;;;;;;;;;;22.12;27.41;97369.56;4902415;29;1915;-77
2023/07/31 01:45:53;;;;;;;;;;;;;;;22.13;27.52;97356.22;4902892;29;1184;-77
2023/07/31 01:48:18;;;;;;;;;;;;;;;22.09;27.59;97359.13;4902361;29;970;-77
2023/07/31 01:50:44;;;;;;;;;;;;;;;22.22;27.47;97359.06;4902995;29;1295;-77
2023/07/31 01:53:12;;;;;;;;;;;;;;;22.23;27.23;97367.13;4902320;29;1286;-77
2023/07/31 01:55:37;;;;;;;;;;;;;;;21.96;27.56;97366.91;4918709;29;1116;-77
2023/07/31 01:58:03;;;;;;;;;;;;;;;22.32;27.24;97372.81;4921475;29;888;-77
2023/07/31 02:00:28;;;;;;;;;;;;;;;22.26;27.08;97373.88;4933856;29;1364;-76
2023/07/31 02:02:54;;;;;;;;;;;;;;;22.41;27.09;97371.28;4914409;29;1911;-77
2023/07/31 02:05:19;;;;;;;;;;;;;;;22.01;27.67;97363.47;4905453;29;1082;-77
2023/07/31 02:07:45;;;;;;;;;;;;;;;21.96;27.43;97364.88;4936970;29;1277;-77
2023/07/31 02:10:11;;;;;;;;;;;;;;;22.35;27.05;97371.88;4921724;29;777;-76
2023/07/31 02:12:36;;;;;;;;;;;;;;;22.00;27.48;97350.59;4908139;29;922;-76
2023/07/31 02:15:02;;;;;;;;;;;;;;;21.89;27.68;97361.53;4943252;29;987;-77
2023/07/31 02:17:28;;;;;;;;;;;;;;;22.13;27.52;97365.50;4943310;29;863;-76
2023/07/31 02:19:54;;;;;;;;;;;;;;;22.15;27.49;97368.63;4927675;29;1248;-77
2023/07/31 02:22:19;;;;;;;;;;;;;;;22.14;27.39;97371.94;4942906;29;1910;-77
2023/07/31 02:24:45;;;;;;;;;;;;;;;22.19;27.56;97363.63;4958956;29;1163;-77
2023/07/31 02:27:10;;;;;;;;;;;;;;;22.39;26.99;97353.97;4943122;29;1149;-77
2023/07/31 02:29:36;;;;;;;;;;;;;;;22.26;27.22;97363.34;4958968;29;913;-76
2023/07/31 02:32:02;;;;;;;;;;;;;;;22.20;27.48;97353.88;4927117;29;1273;-77
2023/07/31 02:34:27;;;;;;;;;;;;;;;22.24;27.41;97354.53;4927118;29;1114;-77
2023/07/31 02:36:53;;;;;;;;;;;;;;;22.10;27.66;97366.38;4943110;29;1319;-77
2023/07/31 02:39:18;;;;;;;;;;;;;;;22.11;27.66;97365.16;4927041;29;1218;-76
2023/07/31 02:41:46;;;;;;;;;;;;;;;22.27;27.30;97370.59;4923935;29;1232;-77
2023/07/31 02:44:14;;;;;;;;;;;;;;;22.03;27.62;97372.34;4942605;29;1979;-76
2023/07/31 02:46:40;;;;;;;;;;;;;;;22.19;27.28;97380.63;4959002;29;960;-77
2023/07/31 02:49:05;;;;;;;;;;;;;;;21.82;28.23;97380.38;4942427;29;965;-77
2023/07/31 02:51:31;;;;;;;;;;;;;;;22.22;27.54;97379.69;4958668;29;1030;-77
2023/07/31 02:53:56;;;;;;;;;;;;;;;22.49;27.01;97375.44;4923368;29;1493;-77
2023/07/31 02:56:22;;;;;;;;;;;;;;;22.29;27.35;97379.44;4923878;29;844;-77
2023/07/31 02:58:47;;;;;;;;;;;;;;;22.37;27.08;97379.91;4923454;29;946;-77
2023/07/31 03:01:13;;;;;;;;;;;;;;;22.10;27.50;97375.69;4885762;29;1194;-77
2023/07/31 03:03:39;;;;;;;;;;;;;;;22.26;27.28;97374.69;4901115;29;1985;-77
2023/07/31 03:06:04;;;;;;;;;;;;;;;22.52;26.92;97386.59;4854668;29;1066;-77
2023/07/31 03:08:30;;;;;;;;;;;;;;;22.50;27.22;97383.47;4869742;29;1244;-77
2023/07/31 03:10:56;;;;;;;;;;;;;;;22.22;27.34;97378.91;4886072;29;1310;-77
2023/07/31 03:13:22;;;;;;;;;;;;;;;22.25;27.46;97378.78;4870135;29;1347;-77
2023/07/31 03:15:47;;;;;;;;;;;;;;;22.17;27.57;97383.13;4870234;29;1127;-77
2023/07/31 03:18:13;;;;;;;;;;;;;;;22.29;27.32;97379.44;4900762;29;975;-77
2023/07/31 03:20:42;;;;;;;;;;;;;;;22.34;27.43;97381.66;4900956;29;1248;-77
2023/07/31 03:23:07;;;;;;;;;;;;;;;22.35;27.37;97377.56;4885364;29;1915;-77
2023/07/31 03:25:33;;;;;;;;;;;;;;;22.32;27.28;97377.69;4885043;29;1101;-77
2023/07/31 03:27:58;;;;;;;;;;;;;;;22.53;26.69;97381.72;4884619;29;1044;-77
2023/07/31 03:30:24;;;;;;;;;;;;;;;22.24;27.50;97382.88;4867171;29;1199;-77
2023/07/31 03:32:49;;;;;;;;;;;;;;;22.38;27.28;97380.72;4866351;29;959;-77
2023/07/31 03:35:15;;;;;;;;;;;;;;;22.18;27.24;97373.38;4866689;29;1116;-76
2023/07/31 03:37:42;;;;;;;;;;;;;;;22.38;27.01;97386.38;4886268;29;1073;-77
2023/07/31 03:40:08;;;;;;;;;;;;;;;22.28;27.05;97377.84;4935898;29;1230;-77
2023/07/31 03:42:34;;;;;;;;;;;;;;;22.33;27.19;97374.41;4919055;29;1911;-77
2023/07/31 03:44:59;;;;;;;;;;;;;;;22.42;26.84;97384.97;4903568;29;1126;-76
2023/07/31 03:47:26;;;;;;;;;;;;;;;22.25;27.37;97383.66;4919556;29;791;-77
2023/07/31 03:49:51;;;;;;;;;;;;;;;22.02;27.43;97376.38;4919321;29;989;-77
2023/07/31 03:52:17;;;;;;;;;;;;;;;22.44;27.04;97381.69;4919906;29;1098;-77
2023/07/31 03:54:44;;;;;;;;;;;;;;;22.50;26.78;97386.28;4935086;29;800;-76
2023/07/31 03:57:10;;;;;;;;;;;;;;;22.15;27.63;97379.97;4934981;29;944;-77
2023/07/31 03:59:35;;;;;;;;;;;;;;;22.21;27.33;97389.44;4919032;29;1127;-76
2023/07/31 04:02:01;;;;;;;;;;;;;;;22.08;27.61;97388.72;4965363;28;813;-77
2023/07/31 04:04:27;;;;;;;;;;;;;;;22.24;27.33;97393.41;4958519;29;1907;-77
2023/07/31 04:06:52;;;;;;;;;;;;;;;21.90;27.81;97391.44;4959807;28;812;-77
2023/07/31 04:09:18;;;;;;;;;;;;;;;22.33;27.06;97390.63;4958653;28;1488;-77
2023/07/31 04:11:43;;;;;;;;;;;;;;;22.33;27.20;97385.75;4957318;29;867;-76
2023/07/31 04:14:09;;;;;;;;;;;;;;;22.23;27.41;97386.97;4925304;29;1125;-77
2023/07/31 04:16:34;;;;;;;;;;;;;;;22.27;27.34;97386.81;4941161;29;963;-77
2023/07/31 04:19:00;;;;;;;;;;;;;;;22.01;27.75;97386.16;4940863;29;905;-77
2023/07/31 04:21:25;;;;;;;;;;;;;;;22.32;27.34;97392.66;4956997;29;904;-76
2023/07/31 04:23:51;;;;;;;;;;;;;;;22.45;27.16;97388.94;4956656;29;1918;-77
2023/07/31 04:26:17;;;;;;;;;;;;;;;22.17;27.55;97383.13;4941407;29;1187;-77
2023/07/31 04:28:43;;;;;;;;;;;;;;;22.20;27.64;97382.22;4913398;29;1245;-77
2023/07/31 04:31:08;;;;;;;;;;;;;;;22.31;27.37;97381.78;4913786;29;1485;-77
2023/07/31 04:33:34;;;;;;;;;;;;;;;22.03;28.02;97378.00;4886889;29;1587;-77
2023/07/31 04:35:59;;;;;;;;;;;;;;;22.28;27.51;97380.69;4911222;29;1620;-77
2023/07/31 04:38:25;;;;;;;;;;;;;;;22.14;27.63;97372.72;4902834;29;960;-77
2023/07/31 04:40:51;;;;;;;;;;;;;;;22.30;27.42;97381.00;4907219;29;891;-77
2023/07/31 04:43:16;;;;;;;;;;;;;;;22.42;27.41;97381.38;4907441;29;1907;-77
2023/07/31 04:45:42;;;;;;;;;;;;;;;22.16;27.72;97387.22;4922955;29;801;-77
2023/07/31 04:48:08;;;;;;;;;;;;;;;22.46;27.49;97387.69;4922809;29;986;-77
2023/07/31 04:50:33;;;;;;;;;;;;;;;22.59;26.98;97397.69;4906649;29;942;-78
2023/07/31 04:52:59;;;;;;;;;;;;;;;22.20;27.75;97393.53;4906821;29;865;-77
2023/07/31 04:55:24;;;;;;;;;;;;;;;22.45;27.32;97397.44;4940999;29;1637;-77
2023/07/31 04:57:50;;;;;;;;;;;;;;;22.29;27.47;97402.09;4884814;29;1021;-76
2023/07/31 05:00:16;;;;;;;;;;;;;;;22.28;27.41;97399.75;4884514;29;980;-78
2023/07/31 05:02:41;;;;;;;;;;;;;;;22.27;27.63;97404.59;4884539;29;1911;-77
2023/07/31 05:05:07;;;;;;;;;;;;;;;22.50;27.20;97411.03;4887924;29;1091;-77
2023/07/31 05:07:33;;;;;;;;;;;;;;;22.15;27.52;97419.63;4922507;29;1398;-77
2023/07/31 05:09:58;;;;;;;;;;;;;;;22.35;27.57;97410.78;4902654;29;1555;-77
2023/07/31 05:12:24;;;;;;;;;;;;;;;22.26;27.62;97420.03;4903283;29;974;-78
2023/07/31 05:14:49;;;;;;;;;;;;;;;22.19;27.65;97419.50;4902811;29;841;-77
2023/07/31 05:17:15;;;;;;;;;;;;;;;22.33;27.77;97418.97;4900566;29;1854;-76
2023/07/31 05:19:41;;;;;;;;;;;;;;;22.31;27.83;97422.25;4887668;29;1795;-78
2023/07/31 05:22:06;;;;;;;;;;;;;;;21.99;28.06;97419.81;4903135;29;1127;-78
2023/07/31 05:24:33;;;;;;;;;;;;;;;22.28;27.99;97431.69;4902666;29;1911;-77
2023/07/31 05:26:58;;;;;;;;;;;;;;;22.25;27.82;97424.13;4903176;29;1156;-77
2023/07/31 05:29:24;;;;;;;;;;;;;;;22.46;27.60;97433.03;4887228;29;1085;-78
2023/07/31 05:31:50;;;;;;;;;;;;;;;22.38;27.73;97431.72;4903024;29;1219;-77
2023/07/31 05:34:15;;;;;;;;;;;;;;;22.40;27.64;97429.25;4892153;29;1209;-77
2023/07/31 05:36:41;;;;;;;;;;;;;;;22.35;27.64;97428.59;4960008;29;874;-77
2023/07/31 05:39:08;;;;;;;;;;;;;;;22.02;28.25;97427.38;4927455;29;937;-77
2023/07/31 05:41:34;;;;;;;;;;;;;;;22.50;27.95;97430.88;4960227;29;972;-77
2023/07/31 05:44:00;;;;;;;;;;;;;;;22.28;28.33;97426.03;4959565;29;1989;-78
2023/07/31 05:46:25;;;;;;;;;;;;;;;22.45;28.07;97434.31;4960218;29;959;-77
2023/07/31 05:48:51;;;;;;;;;;;;;;;22.45;28.16;97437.13;4961704;28;943;-78
2023/07/31 05:51:16;;;;;;;;;;;;;;;22.17;28.32;97436.16;4959989;28;1141;-78
2023/07/31 05:53:43;;;;;;;;;;;;;;;22.12;28.27;97431.88;4961038;29;1061;-78
2023/07/31 05:56:09;;;;;;;;;;;;;;;22.23;28.57;97432.31;4960820;29;815;-77
2023/07/31 05:58:34;;;;;;;;;;;;;;;22.42;28.03;97438.06;4959325;29;986;-78
2023/07/31 06:01:00;;;;;;;;;;;;;;;22.25;28.47;97446.78;4944856;29;1188;-77
2023/07/31 06:03:25;;;;;;;;;;;;;;;22.34;28.19;97444.00;4961333;28;1910;-79
2023/07/31 06:05:51;;;;;;;;;;;;;;;22.26;28.47;97437.03;4960596;29;877;-77
2023/07/31 06:08:16;;;;;;;;;;;;;;;22.35;28.44;97437.09;4960196;29;910;-78
2023/07/31 06:10:42;;;;;;;;;;;;;;;21.96;28.70;97441.34;4944649;29;1284;-78
2023/07/31 06:13:08;;;;;;;;;;;;;;;22.29;28.49;97450.28;4959898;29;791;-77
2023/07/31 06:15:33;;;;;;;;;;;;;;;22.29;28.24;97450.28;4960276;29;825;-77
2023/07/31 06:18:01;;;;;;;;;;;;;;;22.48;28.09;97441.88;4961301;28;956;-78
2023/07/31 06:20:27;;;;;;;;;;;;;;;22.55;28.04;97452.94;4959223;29;861;-77
2023/07/31 06:22:53;;;;;;;;;;;;;;;22.37;28.53;97459.28;4960019;28;1914;-77
2023/07/31 06:25:18;;;;;;;;;;;;;;;22.32;28.57;97457.84;4961493;29;1055;-77
2023/07/31 06:27:44;;;;;;;;;;;;;;;22.57;28.13;97458.94;4959986;29;941;-78
2023/07/31 06:30:10;;;;;;;;;;;;;;;22.52;28.20;97453.88;4960167;28;1148;-77
2023/07/31 06:32:36;;;;;;;;;;;;;;;22.42;29.84;97461.53;4959145;29;940;-78
2023/07/31 06:35:01;;;;;;;;;;;;;;;23.34;29.82;97462.69;4960311;29;883;-77
2023/07/31 06:37:27;;;;;;;;;;;;;;;22.68;30.80;97470.63;4944066;29;1209;-77
2023/07/31 06:39:52;;;;;;;;;;;;;;;22.75;30.38;97467.53;4974555;28;1030;-78
2023/07/31 06:42:18;;;;;;;;;;;;;;;22.55;30.80;97458.63;4959548;29;1976;-77
2023/07/31 06:44:43;;;;;;;;;;;;;;;22.67;30.46;97463.38;4959860;29;875;-78
2023/07/31 06:47:09;;;;;;;;;;;;;;;22.27;30.62;97466.94;4959554;28;912;-77
2023/07/31 06:49:35;;;;;;;;;;;;;;;22.48;30.45;97453.19;4959430;29;946;-77
2023/07/31 06:52:00;;;;;;;;;;;;;;;22.53;29.86;97469.59;4959825;29;859;-77
2023/07/31 06:54:26;;;;;;;;;;;;;;;22.40;30.15;97468.94;4959447;29;822;-77
2023/07/31 06:56:51;;;;;;;;;;;;;;;22.52;29.47;97460.31;4939063;29;1003;-77
2023/07/31 06:59:17;;;;;;;;;;;;;;;22.58;29.62;97460.50;4939342;29;907;-77
2023/07/31 07:01:43;;;;;;;;;;;;;;;22.50;29.26;97462.06;4938990;29;900;-78
2023/07/31 07:04:08;;;;;;;;;;;;;;;22.67;28.62;97460.56;4938386;29;1910;-78
2023/07/31 07:06:34;;;;;;;;;;;;;;;22.31;29.46;97461.94;4939084;29;894;-78
2023/07/31 07:08:59;;;;;;;;;;;;;;;22.62;28.68;97455.50;4906998;29;1065;-77
2023/07/31 07:11:25;;;;;;;;;;;;;;;22.45;29.10;97459.81;4923516;29;891;-77
2023/07/31 07:13:51;;;;;;;;;;;;;;;22.52;28.75;97459.53;4922985;29;1145;-77
2023/07/31 07:16:16;;;;;;;;;;;;;;;22.44;28.96;97461.06;4906657;29;1593;-78
2023/07/31 07:18:42;;;;;;;;;;;;;;;22.48;28.83;97467.38;4932144;29;1663;-77
2023/07/31 07:21:08;;;;;;;;;;;;;;;22.34;29.18;97471.56;4920724;29;1240;-77
2023/07/31 07:23:33;;;;;;;;;;;;;;;22.33;29.32;97459.44;4919021;29;1979;-77
2023/07/31 07:25:59;;;;;;;;;;;;;;;22.35;29.23;97468.25;4912538;29;1665;-77
2023/07/31 07:28:25;;;;;;;;;;;;;;;22.56;28.95;97472.31;4959663;28;1786;-78
2023/07/31 07:30:51;;;;;;;;;;;;;;;22.63;28.61;97465.56;4958947;29;1964;-78
2023/07/31 07:33:18;;;;;;;;;;;;;;;22.31;29.40;97469.66;4955069;29;1919;-78
2023/07/31 07:35:44;;;;;;;;;;;;;;;22.69;28.64;97463.72;4958382;28;1563;-77
2023/07/31 07:38:09;;;;;;;;;;;;;;;22.33;28.95;97470.00;4962149;28;1215;-77
2023/07/31 07:40:38;;;;;;;;;;;;;;;22.33;29.13;97470.78;4959390;28;1615;-78
2023/07/31 07:43:04;;;;;;;;;;;;;;;22.43;28.63;97467.97;4942466;29;1983;-78
2023/07/31 07:45:30;;;;;;;;;;;;;;;22.33;29.21;97470.00;4958346;29;902;-77
2023/07/31 07:47:55;;;;;;;;;;;;;;;22.56;28.67;97471.53;4958566;29;843;-78
2023/07/31 07:50:21;;;;;;;;;;;;;;;22.48;28.66;97473.06;4960117;29;870;-78
2023/07/31 07:52:46;;;;;;;;;;;;;;;22.69;28.68;97469.41;4958517;29;977;-77
2023/07/31 07:55:12;;;;;;;;;;;;;;;22.60;28.64;97472.19;4958236;29;832;-77
2023/07/31 07:57:37;;;;;;;;;;;;;;;22.43;28.89;97479.31;4958058;29;1081;-77
2023/07/31 08:00:03;;;;;;;;;;;;;;;22.36;29.29;97481.19;4958787;29;965;-77
2023/07/31 08:02:39;;;;;;;;;;;;;;;22.58;28.75;97480.34;4958946;28;1973;-76
2023/07/31 08:05:05;;;;;;;;;;;;;;;22.67;28.54;97466.22;4959285;28;879;-77
2023/07/31 08:07:30;;;;;;;;;;;;;;;22.64;28.75;97472.84;4957228;29;886;-77
2023/07/31 08:09:56;;;;;;;;;;;;;;;22.29;29.35;97475.78;4959048;28;1006;-77
2023/07/31 08:12:21;;;;;;;;;;;;;;;22.58;28.79;97475.47;4958435;29;1227;-77
2023/07/31 08:14:47;;;;;;;;;;;;;;;22.64;28.72;97472.84;4958667;28;852;-77
2023/07/31 08:17:13;;;;;;;;;;;;;;;22.57;28.82;97478.78;4957727;29;744;-77
2023/07/31 08:19:38;;;;;;;;;;;;;;;22.51;29.01;97486.31;4941026;29;793;-77
2023/07/31 08:22:04;;;;;;;;;;;;;;;22.87;28.18;97480.81;4941231;29;940;-78
2023/07/31 08:24:31;;;;;;;;;;;;;;;22.36;28.88;97486.84;4940331;29;1906;-77
2023/07/31 08:26:57;;;;;;;;;;;;;;;22.60;28.70;97484.31;4921759;29;1198;-79
2023/07/31 08:29:23;;;;;;;;;;;;;;;22.48;28.94;97501.41;4937515;29;941;-79
2023/07/31 08:31:49;;;;;;;;;;;;;;;22.15;29.51;97498.19;4921950;29;909;-78
2023/07/31 08:34:14;;;;;;;;;;;;;;;22.21;29.28;97497.13;4939983;29;1928;-79
2023/07/31 08:36:40;;;;;;;;;;;;;;;21.87;29.16;97457.50;4947184;29;1571;-79
2023/07/31 08:39:06;;;;;;;;;;;;;;;22.47;28.71;97497.00;4945309;29;1865;-76
2023/07/31 08:41:31;;;;;;;;;;;;;;;22.62;28.80;97492.34;4956290;29;1077;-76
2023/07/31 08:43:57;;;;;;;;;;;;;;;22.38;28.75;97494.88;4937354;29;1983;-76
2023/07/31 08:46:23;;;;;;;;;;;;;;;22.53;28.66;97495.13;4955436;29;1603;-76
2023/07/31 08:48:48;;;;;;;;;;;;;;;22.38;28.98;97494.09;4940524;29;937;-76
2023/07/31 08:51:14;;;;;;;;;;;;;;;22.51;28.73;97497.66;4922962;29;1801;-76
2023/07/31 08:53:39;;;;;;;;;;;;;;;22.58;28.78;97500.19;4948022;29;1693;-76
2023/07/31 08:56:05;;;;;;;;;;;;;;;22.63;28.56;97508.09;4941322;29;984;-76
2023/07/31 08:58:31;;;;;;;;;;;;;;;22.20;29.10;97512.56;4956855;29;1107;-76
2023/07/31 09:00:56;;;;;;;;;;;;;;;22.44;28.71;97509.28;4957332;29;936;-76
2023/07/31 09:03:23;;;;;;;;;;;;;;;22.67;28.62;97516.47;4957015;29;1907;-77
2023/07/31 09:05:48;;;;;;;;;;;;;;;22.43;28.94;97510.50;4957756;29;966;-76
2023/07/31 09:08:15;;;;;;;;;;;;;;;22.34;29.10;97506.38;4956676;29;1258;-76
2023/07/31 09:10:41;;;;;;;;;;;;;;;22.55;28.77;97515.31;4957232;29;887;-76
2023/07/31 09:13:07;;;;;;;;;;;;;;;22.56;28.50;97517.69;4958372;28;870;-76
2023/07/31 09:15:32;;;;;;;;;;;;;;;22.51;28.95;97521.13;4941308;29;1226;-76
2023/07/31 09:17:58;;;;;;;;;;;;;;;22.50;28.75;97525.22;4941357;29;890;-76
2023/07/31 09:20:24;;;;;;;;;;;;;;;22.62;28.70;97523.53;4957097;29;1246;-76
2023/07/31 09:22:50;;;;;;;;;;;;;;;22.43;29.00;97525.47;4957265;29;1910;-76
2023/07/31 09:25:16;;;;;;;;;;;;;;;22.67;28.65;97522.94;4959878;28;1165;-77
2023/07/31 09:27:54;;;;;;;;;;;;;;;22.58;28.51;97526.50;4961276;28;908;-76
2023/07/31 09:30:20;;;;;;;;;;;;;;;22.65;28.40;97530.34;4961279;28;1050;-76
2023/07/31 09:32:45;;;;;;;;;;;;;;;22.53;28.53;97534.81;4960821;29;876;-76
2023/07/31 09:35:21;;;;;;;;;;;;;;;22.64;28.60;97535.22;4961807;28;766;-76
2023/07/31 09:37:53;;;;;;;;;;;;;;;22.76;28.04;97531.50;4944686;29;1113;-76
2023/07/31 09:40:28;;;;;;;;;;;;;;;22.64;28.62;97535.22;4960099;29;896;-77
2023/07/31 09:43:01;;;;;;;;;;;;;;;22.38;28.75;97533.78;4960287;29;1906;-77
2023/07/31 09:45:26;;;;;;;;;;;;;;;22.43;28.50;97536.00;4960429;29;971;-77
2023/07/31 09:47:52;;;;;;;;;;;;;;;22.36;28.97;97534.25;4961787;29;905;-77
2023/07/31 09:50:19;;;;;;;;;;;;;;;22.19;29.20;97533.66;4944288;29;1165;-77
2023/07/31 09:52:45;;;;;;;;;;;;;;;22.25;29.00;97531.81;4960184;29;1058;-77
2023/07/31 09:55:10;;;;;;;;;;;;;;;22.17;29.07;97530.47;4960056;29;1037;-78
2023/07/31 09:57:46;;;;;;;;;;;;;;;22.22;29.04;97527.03;4960219;29;886;-77
2023/07/31 10:00:12;;;;;;;;;;;;;;;22.40;28.62;97532.06;4961245;28;858;-78
2023/07/31 10:02:38;;;;;;;;;;;;;;;22.28;28.80;97533.72;4927056;29;1990;-77
2023/07/31 10:05:03;;;;;;;;;;;;;;;22.41;28.42;97530.03;4960811;28;1083;-78
2023/07/31 10:07:29;;;;;;;;;;;;;;;22.47;28.48;97531.00;4960110;29;988;-77
2023/07/31 10:09:55;;;;;;;;;;;;;;;22.44;28.08;97526.28;4960713;28;912;-77
2023/07/31 10:12:21;;;;;;;;;;;;;;;22.65;28.26;97522.63;4959956;29;934;-77
2023/07/31 10:14:46;;;;;;;;;;;;;;;22.44;28.56;97520.59;4959261;29;1693;-78
2023/07/31 10:17:12;;;;;;;;;;;;;;;22.40;28.70;97519.94;4960715;28;1905;-77
2023/07/31 10:19:37;;;;;;;;;;;;;;;22.30;28.71;97524.75;4959786;29;871;-77
2023/07/31 10:22:03;;;;;;;;;;;;;;;22.26;28.64;97529.75;4960957;29;987;-78
2023/07/31 10:24:29;;;;;;;;;;;;;;;22.37;28.63;97521.66;4959313;29;1907;-79
2023/07/31 10:26:54;;;;;;;;;;;;;;;22.44;28.55;97521.41;4920232;29;1286;-78
2023/07/31 10:29:20;;;;;;;;;;;;;;;22.62;28.03;97517.88;4904649;29;922;-78
2023/07/31 10:31:46;;;;;;;;;;;;;;;22.57;28.15;97524.13;4904582;29;990;-78
2023/07/31 10:34:11;;;;;;;;;;;;;;;22.38;28.36;97520.38;4904842;29;845;-78
2023/07/31 10:36:37;;;;;;;;;;;;;;;22.63;28.01;97517.41;4904516;29;921;-78
2023/07/31 10:39:04;;;;;;;;;;;;;;;22.71;28.00;97522.81;4888612;29;1313;-78
2023/07/31 10:41:30;;;;;;;;;;;;;;;22.62;28.16;97515.81;4920417;29;879;-79
2023/07/31 10:44:02;;;;;;;;;;;;;;;22.51;28.13;97520.31;4904386;29;1903;-78
2023/07/31 10:46:28;;;;;;;;;;;;;;;22.41;28.34;97522.31;4904673;29;955;-78
2023/07/31 10:49:00;;;;;;;;;;;;;;;22.15;28.83;97515.97;4904117;29;921;-78
2023/07/31 10:51:32;;;;;;;;;;;;;;;22.59;28.02;97518.81;4920052;29;991;-78
2023/07/31 10:54:10;;;;;;;;;;;;;;;22.51;28.19;97521.13;4904239;29;919;-78
2023/07/31 10:56:37;;;;;;;;;;;;;;;22.06;28.90;97518.72;4904156;29;910;-78
2023/07/31 10:59:03;;;;;;;;;;;;;;;22.52;28.19;97516.22;4957934;29;804;-79
2023/07/31 11:01:47;;;;;;;;;;;;;;;22.04;28.49;97512.72;4960109;29;805;-78
2023/07/31 11:04:13;;;;;;;;;;;;;;;22.25;28.67;97511.97;4959954;29;1915;-78
2023/07/31 11:06:39;;;;;;;;;;;;;;;22.14;28.97;97508.75;4958691;29;973;-76
2023/07/31 11:09:06;;;;;;;;;;;;;;;22.44;28.21;97503.59;4957905;29;1060;-75
2023/07/31 11:11:31;;;;;;;;;;;;;;;22.56;28.12;97505.56;4960042;29;978;-76
2023/07/31 11:13:57;;;;;;;;;;;;;;;22.67;27.91;97500.25;4959486;29;899;-76
2023/07/31 11:16:23;;;;;;;;;;;;;;;22.43;28.18;97496.31;4958561;29;915;-76
2023/07/31 11:18:51;;;;;;;;;;;;;;;22.66;28.02;97487.34;4958682;29;916;-77
2023/07/31 11:21:20;;;;;;;;;;;;;;;22.24;28.49;97495.44;4958500;29;880;-76
2023/07/31 11:23:46;;;;;;;;;;;;;;;22.45;28.26;97493.84;4959604;28;1993;-78
2023/07/31 11:26:12;;;;;;;;;;;;;;;22.41;28.45;97487.50;4958627;29;1059;-77
2023/07/31 11:28:38;;;;;;;;;;;;;;;22.15;28.58;97481.97;4956911;29;957;-78
2023/07/31 11:31:04;;;;;;;;;;;;;;;22.16;28.83;97483.56;4957732;29;967;-77
2023/07/31 11:33:29;;;;;;;;;;;;;;;22.62;28.06;97475.34;4941124;29;899;-77
2023/07/31 11:35:55;;;;;;;;;;;;;;;22.43;28.00;97479.31;4925564;29;984;-77
2023/07/31 11:38:22;;;;;;;;;;;;;;;22.47;27.96;97479.97;4956952;29;901;-77
2023/07/31 11:40:48;;;;;;;;;;;;;;;22.56;27.83;97471.53;4941038;29;957;-78
2023/07/31 11:43:16;;;;;;;;;;;;;;;22.13;28.53;97476.00;4941251;29;1989;-77
2023/07/31 11:45:45;;;;;;;;;;;;;;;22.43;28.28;97473.66;4942155;29;944;-78
2023/07/31 11:48:10;;;;;;;;;;;;;;;22.35;28.57;97468.25;4940478;28;903;-77
2023/07/31 11:50:36;;;;;;;;;;;;;;;22.31;28.50;97472.47;4940911;29;1013;-78
2023/07/31 11:53:03;;;;;;;;;;;;;;;22.09;28.60;97473.25;4940505;29;972;-77
2023/07/31 11:55:28;;;;;;;;;;;;;;;22.21;28.82;97480.13;4941250;29;976;-78
2023/07/31 11:57:54;;;;;;;;;;;;;;;22.21;28.76;97479.34;4940977;29;1227;-77
2023/07/31 12:00:20;;;;;;;;;;;;;;;22.43;28.60;97473.66;4954296;29;989;-77
2023/07/31 12:02:46;;;;;;;;;;;;;;;22.62;28.20;97469.66;4959109;28;1891;-77
2023/07/31 12:05:12;;;;;;;;;;;;;;;22.39;28.37;97473.00;4958123;29;923;-77
2023/07/31 12:07:47;;;;;;;;;;;;;;;22.49;28.07;97463.31;4942060;29;849;-77
2023/07/31 12:10:23;;;;;;;;;;;;;;;22.38;28.29;97465.75;4973892;28;859;-78
2023/07/31 12:12:55;;;;;;;;;;;;;;;22.39;28.18;97467.34;4958973;28;923;-77
2023/07/31 12:15:21;;;;;;;;;;;;;;;22.47;27.99;97479.97;4973891;28;944;-78
2023/07/31 12:17:47;;;;;;;;;;;;;;;22.59;27.85;97470.63;4957823;29;845;-77
2023/07/31 12:20:13;;;;;;;;;;;;;;;22.34;28.26;97478.03;4941590;29;1178;-78
2023/07/31 12:22:38;;;;;;;;;;;;;;;22.30;28.18;97474.53;4959247;28;1906;-77
2023/07/31 12:25:04;;;;;;;;;;;;;;;22.48;28.28;97464.53;4957313;29;1047;-78
2023/07/31 12:27:32;;;;;;;;;;;;;;;22.29;28.47;97458.00;4956637;29;957;-78
2023/07/31 12:29:58;;;;;;;;;;;;;;;22.53;27.98;97455.44;4940730;29;899;-77
2023/07/31 12:32:24;;;;;;;;;;;;;;;22.57;27.82;97450.41;4956949;29;857;-77
2023/07/31 12:34:50;;;;;;;;;;;;;;;22.17;28.77;97462.47;4902781;29;1141;-77
2023/07/31 12:37:16;;;;;;;;;;;;;;;22.32;28.34;97463.50;4918192;29;981;-77
2023/07/31 12:39:41;;;;;;;;;;;;;;;22.50;27.87;97445.03;4918367;29;901;-77
2023/07/31 12:42:07;;;;;;;;;;;;;;;22.16;28.53;97446.72;4918488;29;930;-78
2023/07/31 12:44:32;;;;;;;;;;;;;;;22.58;27.70;97443.50;4902357;29;1920;-77
2023/07/31 12:46:58;;;;;;;;;;;;;;;22.29;28.31;97441.78;4918646;29;993;-77
2023/07/31 12:49:23;;;;;;;;;;;;;;;22.26;28.25;97431.34;4918036;29;891;-77
2023/07/31 12:51:49;;;;;;;;;;;;;;;22.53;27.89;97444.88;4917959;29;878;-77
2023/07/31 12:54:15;;;;;;;;;;;;;;;22.61;27.73;97442.56;4917933;29;953;-77
2023/07/31 12:56:40;;;;;;;;;;;;;;;22.52;27.84;97434.00;4918423;29;973;-77